sensor_id;sensor_type;location;lat;lon;timestamp;pressure;altitude;pressure_sealevel;temperature;humidity
52949;BME280;38812;50.942;3.644;2022-10-17T00:01:12;100977.94;;;14.87;100.00
52949;BME280;38812;50.942;3.644;2022-10-17T00:03:38;100977.03;;;14.88;100.00
52949;BME280;38812;50.942;3.644;2022-10-17T00:06:07;100961.47;;;14.79;100.00
52949;BME280;38812;50.942;3.644;2022-10-17T00:08:32;100977.06;;;14.87;100.00
52949;BME280;38812;50.942;3.644;2022-10-17T00:11:12;100958.06;;;14.75;100.00
52949;BME280;38812;50.942;3.644;2022-10-17T00:13:37;100976.53;;;14.77;100.00
52949;BME280;38812;50.942;3.644;2022-10-17T00:16:03;100974.53;;;14.84;100.00
52949;BME280;38812;50.942;3.644;2022-10-17T00:18:29;100979.63;;;14.90;100.00
52949;BME280;38812;50.942;3.644;2022-10-17T00:20:54;100989.28;;;14.91;100.00
52949;BME280;38812;50.942;3.644;2022-10-17T00:23:20;100993.69;;;14.90;100.00
52949;BME280;38812;50.942;3.644;2022-10-17T00:25:46;100982.25;;;14.90;100.00
52949;BME280;38812;50.942;3.644;2022-10-17T00:28:12;100995.94;;;15.01;100.00
52949;BME280;38812;50.942;3.644;2022-10-17T00:30:38;100979.09;;;15.03;100.00
52949;BME280;38812;50.942;3.644;2022-10-17T00:33:04;100968.66;;;14.99;100.00
52949;BME280;38812;50.942;3.644;2022-10-17T00:35:29;100993.66;;;15.15;100.00
52949;BME280;38812;50.942;3.644;2022-10-17T00:37:55;100990.25;;;15.12;100.00
52949;BME280;38812;50.942;3.644;2022-10-17T00:40:20;100990.22;;;15.13;100.00
52949;BME280;38812;50.942;3.644;2022-10-17T00:42:46;100995.50;;;15.13;100.00
52949;BME280;38812;50.942;3.644;2022-10-17T00:45:23;100997.22;;;15.14;100.00
52949;BME280;38812;50.942;3.644;2022-10-17T00:48:08;100979.16;;;15.02;100.00
52949;BME280;38812;50.942;3.644;2022-10-17T00:50:37;100998.97;;;15.15;100.00
52949;BME280;38812;50.942;3.644;2022-10-17T00:53:03;100996.47;;;15.11;100.00
52949;BME280;38812;50.942;3.644;2022-10-17T00:55:31;100994.63;;;15.13;100.00
52949;BME280;38812;50.942;3.644;2022-10-17T00:57:59;101000.91;;;15.10;100.00
52949;BME280;38812;50.942;3.644;2022-10-17T01:00:26;101016.53;;;15.16;100.00
52949;BME280;38812;50.942;3.644;2022-10-17T01:02:52;101004.56;;;15.06;100.00
52949;BME280;38812;50.942;3.644;2022-10-17T01:05:18;101014.13;;;15.10;100.00
52949;BME280;38812;50.942;3.644;2022-10-17T01:07:44;101004.78;;;15.00;100.00
52949;BME280;38812;50.942;3.644;2022-10-17T01:10:12;101008.03;;;15.08;100.00
52949;BME280;38812;50.942;3.644;2022-10-17T01:15:44;101038.25;;;15.26;100.00
52949;BME280;38812;50.942;3.644;2022-10-17T01:23:52;101043.41;;;15.29;100.00
52949;BME280;38812;50.942;3.644;2022-10-17T01:32:15;101043.75;;;15.20;100.00
52949;BME280;38812;50.942;3.644;2022-10-17T01:34:58;101040.44;;;15.15;100.00
52949;BME280;38812;50.942;3.644;2022-10-17T01:37:41;101024.59;;;15.13;100.00
52949;BME280;38812;50.942;3.644;2022-10-17T01:40:20;101010.56;;;15.11;100.00
52949;BME280;38812;50.942;3.644;2022-10-17T01:43:00;101001.00;;;15.07;100.00
52949;BME280;38812;50.942;3.644;2022-10-17T01:45:53;101001.81;;;15.09;100.00
52949;BME280;38812;50.942;3.644;2022-10-17T01:48:26;101003.72;;;15.05;100.00
52949;BME280;38812;50.942;3.644;2022-10-17T01:50:58;101002.09;;;15.01;100.00
52949;BME280;38812;50.942;3.644;2022-10-17T01:53:34;100982.66;;;15.02;100.00
52949;BME280;38812;50.942;3.644;2022-10-17T01:56:04;100952.13;;;14.94;100.00
52949;BME280;38812;50.942;3.644;2022-10-17T01:58:40;100987.56;;;15.13;100.00
52949;BME280;38812;50.942;3.644;2022-10-17T02:01:08;100987.50;;;15.15;100.00
52949;BME280;38812;50.942;3.644;2022-10-17T02:03:35;100961.72;;;14.96;100.00
52949;BME280;38812;50.942;3.644;2022-10-17T02:06:01;100989.16;;;15.17;100.00
52949;BME280;38812;50.942;3.644;2022-10-17T02:08:28;100993.53;;;15.18;100.00
52949;BME280;38812;50.942;3.644;2022-10-17T02:11:08;101004.16;;;15.17;100.00
52949;BME280;38812;50.942;3.644;2022-10-17T02:22:15;100954.25;;;15.07;100.00
52949;BME280;38812;50.942;3.644;2022-10-17T02:24:57;100926.94;;;15.07;100.00
52949;BME280;38812;50.942;3.644;2022-10-17T02:33:11;100972.31;;;15.65;100.00
52949;BME280;38812;50.942;3.644;2022-10-17T02:35:43;100981.44;;;15.58;100.00
52949;BME280;38812;50.942;3.644;2022-10-17T02:38:11;101026.56;;;15.78;100.00
52949;BME280;38812;50.942;3.644;2022-10-17T02:40:38;101030.59;;;15.87;100.00
52949;BME280;38812;50.942;3.644;2022-10-17T02:43:05;101022.72;;;15.85;100.00
52949;BME280;38812;50.942;3.644;2022-10-17T02:45:31;101019.88;;;15.90;100.00
52949;BME280;38812;50.942;3.644;2022-10-17T02:48:34;101030.31;;;15.94;100.00
52949;BME280;38812;50.942;3.644;2022-10-17T02:51:03;101024.72;;;16.02;100.00
52949;BME280;38812;50.942;3.644;2022-10-17T02:57:04;101078.06;;;16.36;100.00
52949;BME280;38812;50.942;3.644;2022-10-17T02:59:34;101118.22;;;16.48;100.00
52949;BME280;38812;50.942;3.644;2022-10-17T03:02:05;101122.56;;;16.50;100.00
52949;BME280;38812;50.942;3.644;2022-10-17T03:04:31;101116.13;;;16.56;100.00
52949;BME280;38812;50.942;3.644;2022-10-17T03:06:57;101136.56;;;16.75;100.00
52949;BME280;38812;50.942;3.644;2022-10-17T03:09:22;101132.19;;;16.74;100.00
52949;BME280;38812;50.942;3.644;2022-10-17T03:11:47;101146.75;;;16.86;100.00
52949;BME280;38812;50.942;3.644;2022-10-17T03:14:13;101166.63;;;16.96;100.00
52949;BME280;38812;50.942;3.644;2022-10-17T03:16:38;101170.16;;;16.97;100.00
52949;BME280;38812;50.942;3.644;2022-10-17T03:19:03;101173.84;;;16.93;100.00
52949;BME280;38812;50.942;3.644;2022-10-17T03:21:29;101161.50;;;16.92;100.00
52949;BME280;38812;50.942;3.644;2022-10-17T03:23:54;101158.06;;;16.90;100.00
52949;BME280;38812;50.942;3.644;2022-10-17T03:26:20;101178.31;;;16.92;100.00
52949;BME280;38812;50.942;3.644;2022-10-17T03:28:45;101168.41;;;16.96;100.00
52949;BME280;38812;50.942;3.644;2022-10-17T03:31:13;101185.28;;;16.95;100.00
52949;BME280;38812;50.942;3.644;2022-10-17T03:33:39;101165.25;;;16.88;100.00
52949;BME280;38812;50.942;3.644;2022-10-17T03:36:07;101164.38;;;16.87;100.00
52949;BME280;38812;50.942;3.644;2022-10-17T03:38:33;101146.50;;;16.70;100.00
52949;BME280;38812;50.942;3.644;2022-10-17T03:40:58;101157.09;;;16.70;100.00
52949;BME280;38812;50.942;3.644;2022-10-17T03:43:24;101147.56;;;16.66;100.00
52949;BME280;38812;50.942;3.644;2022-10-17T03:45:49;101131.13;;;16.57;100.00
52949;BME280;38812;50.942;3.644;2022-10-17T03:48:14;101122.56;;;16.50;100.00
52949;BME280;38812;50.942;3.644;2022-10-17T03:50:40;101123.91;;;16.60;100.00
52949;BME280;38812;50.942;3.644;2022-10-17T03:53:05;101122.31;;;16.56;100.00
52949;BME280;38812;50.942;3.644;2022-10-17T03:55:30;101118.47;;;16.65;100.00
52949;BME280;38812;50.942;3.644;2022-10-17T03:57:56;101135.88;;;16.70;100.00
52949;BME280;38812;50.942;3.644;2022-10-17T04:00:21;101147.28;;;16.72;100.00
52949;BME280;38812;50.942;3.644;2022-10-17T04:02:46;101151.44;;;16.79;100.00
52949;BME280;38812;50.942;3.644;2022-10-17T04:05:12;101142.78;;;16.74;100.00
52949;BME280;38812;50.942;3.644;2022-10-17T04:07:37;101165.38;;;16.85;100.00
52949;BME280;38812;50.942;3.644;2022-10-17T04:10:04;101163.78;;;16.81;100.00
52949;BME280;38812;50.942;3.644;2022-10-17T04:12:29;101153.53;;;16.71;100.00
52949;BME280;38812;50.942;3.644;2022-10-17T04:14:55;101160.13;;;16.61;100.00
52949;BME280;38812;50.942;3.644;2022-10-17T04:17:20;101158.41;;;16.60;100.00
52949;BME280;38812;50.942;3.644;2022-10-17T04:19:48;101176.75;;;16.66;100.00
52949;BME280;38812;50.942;3.644;2022-10-17T04:22:13;101176.75;;;16.66;100.00
52949;BME280;38812;50.942;3.644;2022-10-17T04:24:38;101193.66;;;16.64;100.00
52949;BME280;38812;50.942;3.644;2022-10-17T04:27:04;101181.41;;;16.60;100.00
52949;BME280;38812;50.942;3.644;2022-10-17T04:29:29;101163.69;;;16.60;100.00
52949;BME280;38812;50.942;3.644;2022-10-17T04:31:54;101164.88;;;16.53;100.00
52949;BME280;38812;50.942;3.644;2022-10-17T04:34:20;101174.31;;;16.60;100.00
52949;BME280;38812;50.942;3.644;2022-10-17T04:36:46;101174.88;;;16.68;100.00
52949;BME280;38812;50.942;3.644;2022-10-17T04:39:11;101176.75;;;16.66;100.00
52949;BME280;38812;50.942;3.644;2022-10-17T04:41:37;101177.41;;;16.71;100.00
52949;BME280;38812;50.942;3.644;2022-10-17T04:44:02;101186.09;;;16.75;100.00
52949;BME280;38812;50.942;3.644;2022-10-17T04:46:28;101183.28;;;16.79;100.00
52949;BME280;38812;50.942;3.644;2022-10-17T04:48:53;101168.56;;;16.71;100.00
52949;BME280;38812;50.942;3.644;2022-10-17T04:51:19;101197.09;;;16.88;100.00
52949;BME280;38812;50.942;3.644;2022-10-17T04:53:44;101199.75;;;16.88;100.00
52949;BME280;38812;50.942;3.644;2022-10-17T04:56:12;101193.69;;;16.84;100.00
52949;BME280;38812;50.942;3.644;2022-10-17T04:58:38;101209.44;;;16.89;100.00
52949;BME280;38812;50.942;3.644;2022-10-17T05:01:08;101225.69;;;17.01;100.00
52949;BME280;38812;50.942;3.644;2022-10-17T05:03:34;101223.22;;;16.97;100.00
52949;BME280;38812;50.942;3.644;2022-10-17T05:06:12;101236.94;;;17.08;100.00
52949;BME280;38812;50.942;3.644;2022-10-17T05:08:38;101231.75;;;17.05;100.00
52949;BME280;38812;50.942;3.644;2022-10-17T05:11:03;101221.50;;;16.96;100.00
52949;BME280;38812;50.942;3.644;2022-10-17T05:13:30;101232.44;;;17.10;100.00
52949;BME280;38812;50.942;3.644;2022-10-17T05:15:59;101258.38;;;17.24;100.00
52949;BME280;38812;50.942;3.644;2022-10-17T05:18:25;101272.47;;;17.26;100.00
52949;BME280;38812;50.942;3.644;2022-10-17T05:20:50;101273.63;;;17.19;100.00
52949;BME280;38812;50.942;3.644;2022-10-17T05:23:15;101281.53;;;17.20;100.00
52949;BME280;38812;50.942;3.644;2022-10-17T05:25:41;101281.53;;;17.20;100.00
52949;BME280;38812;50.942;3.644;2022-10-17T05:28:06;101293.78;;;17.24;100.00
52949;BME280;38812;50.942;3.644;2022-10-17T05:30:34;101273.81;;;17.14;100.00
52949;BME280;38812;50.942;3.644;2022-10-17T05:32:59;101285.69;;;17.27;100.00
52949;BME280;38812;50.942;3.644;2022-10-17T05:35:25;101293.97;;;17.20;100.00
52949;BME280;38812;50.942;3.644;2022-10-17T05:37:50;101293.78;;;17.24;100.00
52949;BME280;38812;50.942;3.644;2022-10-17T05:40:16;101294.56;;;17.26;100.00
52949;BME280;38812;50.942;3.644;2022-10-17T05:42:45;101274.69;;;17.14;100.00
52949;BME280;38812;50.942;3.644;2022-10-17T05:45:12;101289.50;;;17.20;100.00
52949;BME280;38812;50.942;3.644;2022-10-17T05:47:38;101275.03;;;17.07;100.00
52949;BME280;38812;50.942;3.644;2022-10-17T05:50:03;101263.31;;;17.11;100.00
52949;BME280;38812;50.942;3.644;2022-10-17T05:52:29;101256.44;;;17.07;100.00
52949;BME280;38812;50.942;3.644;2022-10-17T05:54:54;101271.97;;;17.16;100.00
52949;BME280;38812;50.942;3.644;2022-10-17T05:57:20;101277.56;;;17.10;100.00
52949;BME280;38812;50.942;3.644;2022-10-17T05:59:45;101279.25;;;17.11;100.00
52949;BME280;38812;50.942;3.644;2022-10-17T06:02:13;101283.06;;;17.05;100.00
52949;BME280;38812;50.942;3.644;2022-10-17T06:04:39;101287.16;;;16.91;100.00
52949;BME280;38812;50.942;3.644;2022-10-17T06:07:09;101302.31;;;16.89;100.00
52949;BME280;38812;50.942;3.644;2022-10-17T06:09:34;101301.75;;;16.81;100.00
52949;BME280;38812;50.942;3.644;2022-10-17T06:12:00;101303.25;;;16.88;100.00
52949;BME280;38812;50.942;3.644;2022-10-17T06:14:25;101306.06;;;16.83;100.00
52949;BME280;38812;50.942;3.644;2022-10-17T06:16:50;101280.88;;;16.71;100.00
52949;BME280;38812;50.942;3.644;2022-10-17T06:19:16;101275.84;;;16.65;100.00
52949;BME280;38812;50.942;3.644;2022-10-17T06:21:41;101275.91;;;16.62;100.00
52949;BME280;38812;50.942;3.644;2022-10-17T06:24:07;101276.78;;;16.63;100.00
52949;BME280;38812;50.942;3.644;2022-10-17T06:26:32;101245.84;;;16.40;100.00
52949;BME280;38812;50.942;3.644;2022-10-17T06:28:57;101241.09;;;16.48;100.00
52949;BME280;38812;50.942;3.644;2022-10-17T06:31:23;101209.06;;;16.31;100.00
52949;BME280;38812;50.942;3.644;2022-10-17T06:33:48;101173.50;;;16.36;100.00
52949;BME280;38812;50.942;3.644;2022-10-17T06:36:14;101167.50;;;16.31;100.00
52949;BME280;38812;50.942;3.644;2022-10-17T06:38:40;101129.78;;;16.25;100.00
52949;BME280;38812;50.942;3.644;2022-10-17T06:41:15;101130.97;;;16.18;100.00
52949;BME280;38812;50.942;3.644;2022-10-17T06:43:44;101136.38;;;16.15;100.00
52949;BME280;38812;50.942;3.644;2022-10-17T06:46:14;101140.06;;;16.10;100.00
52949;BME280;38812;50.942;3.644;2022-10-17T06:48:40;101207.31;;;16.08;100.00
52949;BME280;38812;50.942;3.644;2022-10-17T06:51:07;101241.75;;;16.08;100.00
52949;BME280;38812;50.942;3.644;2022-10-17T06:53:36;101226.81;;;16.05;100.00
52949;BME280;38812;50.942;3.644;2022-10-17T06:56:02;101191.81;;;15.97;100.00
52949;BME280;38812;50.942;3.644;2022-10-17T06:58:30;101185.00;;;15.90;100.00
52949;BME280;38812;50.942;3.644;2022-10-17T07:01:04;101207.47;;;16.03;100.00
52949;BME280;38812;50.942;3.644;2022-10-17T07:03:30;101226.16;;;16.00;100.00
52949;BME280;38812;50.942;3.644;2022-10-17T07:05:56;101249.09;;;16.01;100.00
52949;BME280;38812;50.942;3.644;2022-10-17T07:08:22;101277.69;;;15.92;100.00
52949;BME280;38812;50.942;3.644;2022-10-17T07:10:48;101236.16;;;15.92;100.00
52949;BME280;38812;50.942;3.644;2022-10-17T07:13:14;101225.47;;;15.95;100.00
52949;BME280;38812;50.942;3.644;2022-10-17T07:15:40;101208.06;;;15.88;100.00
52949;BME280;38812;50.942;3.644;2022-10-17T07:18:06;101202.88;;;15.85;100.00
52949;BME280;38812;50.942;3.644;2022-10-17T07:20:32;101218.66;;;15.88;100.00
52949;BME280;38812;50.942;3.644;2022-10-17T07:22:57;101218.25;;;15.75;100.00
52949;BME280;38812;50.942;3.644;2022-10-17T07:25:23;101236.63;;;15.80;100.00
52949;BME280;38812;50.942;3.644;2022-10-17T07:27:49;101224.31;;;15.79;100.00
52949;BME280;38812;50.942;3.644;2022-10-17T07:30:15;101218.25;;;15.75;100.00
52949;BME280;38812;50.942;3.644;2022-10-17T07:32:41;101190.91;;;15.75;100.00
52949;BME280;38812;50.942;3.644;2022-10-17T07:35:08;101193.88;;;15.89;100.00
52949;BME280;38812;50.942;3.644;2022-10-17T07:37:34;101179.72;;;15.90;100.00
52949;BME280;38812;50.942;3.644;2022-10-17T07:39:59;101172.63;;;15.91;100.00
52949;BME280;38812;50.942;3.644;2022-10-17T07:42:25;101186.75;;;15.91;100.00
52949;BME280;38812;50.942;3.644;2022-10-17T07:44:51;101214.88;;;15.95;100.00
52949;BME280;38812;50.942;3.644;2022-10-17T07:47:17;101246.00;;;15.89;100.00
52949;BME280;38812;50.942;3.644;2022-10-17T07:49:42;101253.16;;;15.87;100.00
52949;BME280;38812;50.942;3.644;2022-10-17T07:52:10;101223.09;;;15.88;100.00
52949;BME280;38812;50.942;3.644;2022-10-17T07:54:36;101201.25;;;15.81;100.00
52949;BME280;38812;50.942;3.644;2022-10-17T07:57:01;101202.53;;;15.94;100.00
52949;BME280;38812;50.942;3.644;2022-10-17T07:59:27;101228.13;;;15.95;100.00
52949;BME280;38812;50.942;3.644;2022-10-17T08:01:54;101235.13;;;15.96;100.00
52949;BME280;38812;50.942;3.644;2022-10-17T08:04:20;101208.66;;;15.96;100.00
52949;BME280;38812;50.942;3.644;2022-10-17T08:06:45;101191.19;;;15.91;100.00
52949;BME280;38812;50.942;3.644;2022-10-17T08:09:11;101214.44;;;16.06;100.00
52949;BME280;38812;50.942;3.644;2022-10-17T08:11:36;101203.69;;;16.10;100.00
52949;BME280;38812;50.942;3.644;2022-10-17T08:14:02;101208.09;;;16.10;100.00
52949;BME280;38812;50.942;3.644;2022-10-17T08:16:27;101189.06;;;16.00;100.00
52949;BME280;38812;50.942;3.644;2022-10-17T08:18:52;101188.00;;;16.04;100.00
52949;BME280;38812;50.942;3.644;2022-10-17T08:21:18;101179.13;;;16.05;100.00
52949;BME280;38812;50.942;3.644;2022-10-17T08:23:43;101183.81;;;15.99;100.00
52949;BME280;38812;50.942;3.644;2022-10-17T08:26:10;101193.56;;;15.98;100.00
52949;BME280;38812;50.942;3.644;2022-10-17T08:28:38;101221.47;;;16.07;100.00
52949;BME280;38812;50.942;3.644;2022-10-17T08:31:06;101224.88;;;16.10;100.00
52949;BME280;38812;50.942;3.644;2022-10-17T08:33:31;101228.56;;;16.06;100.00
52949;BME280;38812;50.942;3.644;2022-10-17T08:35:58;101244.47;;;16.06;100.00
52949;BME280;38812;50.942;3.644;2022-10-17T08:38:25;101273.28;;;16.16;100.00
52949;BME280;38812;50.942;3.644;2022-10-17T08:40:50;101267.28;;;16.10;100.00
52949;BME280;38812;50.942;3.644;2022-10-17T08:45:47;101278.84;;;16.08;100.00
52949;BME280;38812;50.942;3.644;2022-10-17T08:48:18;101278.00;;;16.07;100.00
52949;BME280;38812;50.942;3.644;2022-10-17T08:50:52;101299.78;;;16.16;100.00
52949;BME280;38812;50.942;3.644;2022-10-17T08:53:35;101307.63;;;16.19;100.00
52949;BME280;38812;50.942;3.644;2022-10-17T08:56:22;101293.78;;;16.10;100.00
52949;BME280;38812;50.942;3.644;2022-10-17T08:58:48;101306.81;;;16.17;100.00
52949;BME280;38812;50.942;3.644;2022-10-17T09:06:51;101317.53;;;16.14;100.00
52949;BME280;38812;50.942;3.644;2022-10-17T09:09:47;101328.13;;;16.14;100.00
52949;BME280;38812;50.942;3.644;2022-10-17T09:12:17;101319.16;;;16.18;100.00
52949;BME280;38812;50.942;3.644;2022-10-17T09:15:02;101332.25;;;16.22;100.00
52949;BME280;38812;50.942;3.644;2022-10-17T09:20:39;101326.75;;;16.27;100.00
52949;BME280;38812;50.942;3.644;2022-10-17T09:23:22;101333.50;;;16.35;100.00
52949;BME280;38812;50.942;3.644;2022-10-17T09:25:53;101335.31;;;16.35;100.00
52949;BME280;38812;50.942;3.644;2022-10-17T09:30:46;101346.09;;;16.54;100.00
52949;BME280;38812;50.942;3.644;2022-10-17T09:33:17;101358.59;;;16.50;100.00
52949;BME280;38812;50.942;3.644;2022-10-17T09:35:43;101359.19;;;16.58;100.00
52949;BME280;38812;50.942;3.644;2022-10-17T09:38:18;101360.72;;;16.65;100.00
52949;BME280;38812;50.942;3.644;2022-10-17T09:40:54;101362.44;;;16.66;100.00
52949;BME280;38812;50.942;3.644;2022-10-17T09:43:20;101373.25;;;16.60;100.00
52949;BME280;38812;50.942;3.644;2022-10-17T09:46:05;101392.84;;;16.56;100.00
52949;BME280;38812;50.942;3.644;2022-10-17T09:48:42;101398.97;;;16.58;100.00
52949;BME280;38812;50.942;3.644;2022-10-17T09:51:11;101394.09;;;16.46;100.00
52949;BME280;38812;50.942;3.644;2022-10-17T09:53:39;101398.63;;;16.44;100.00
52949;BME280;38812;50.942;3.644;2022-10-17T09:56:10;101398.63;;;16.44;100.00
52949;BME280;38812;50.942;3.644;2022-10-17T09:58:44;101397.44;;;16.51;100.00
52949;BME280;38812;50.942;3.644;2022-10-17T10:01:17;101403.47;;;16.56;100.00
52949;BME280;38812;50.942;3.644;2022-10-17T10:03:43;101394.41;;;16.62;100.00
52949;BME280;38812;50.942;3.644;2022-10-17T10:06:17;101405.75;;;16.67;100.00
52949;BME280;38812;50.942;3.644;2022-10-17T10:08:55;101414.59;;;16.89;100.00
52949;BME280;38812;50.942;3.644;2022-10-17T10:11:43;101415.09;;;17.22;100.00
52949;BME280;38812;50.942;3.644;2022-10-17T10:14:11;101425.84;;;17.41;100.00
52949;BME280;38812;50.942;3.644;2022-10-17T10:16:42;101478.13;;;17.62;100.00
52949;BME280;38812;50.942;3.644;2022-10-17T10:19:23;101499.81;;;17.75;100.00
52949;BME280;38812;50.942;3.644;2022-10-17T10:22:17;101553.16;;;17.92;100.00
52949;BME280;38812;50.942;3.644;2022-10-17T10:24:43;101588.31;;;17.99;100.00
52949;BME280;38812;50.942;3.644;2022-10-17T10:27:14;101624.66;;;17.98;100.00
52949;BME280;38812;50.942;3.644;2022-10-17T10:29:42;101613.09;;;17.99;100.00
52949;BME280;38812;50.942;3.644;2022-10-17T10:32:31;101629.28;;;18.17;100.00
52949;BME280;38812;50.942;3.644;2022-10-17T10:35:19;101643.38;;;18.19;100.00
52949;BME280;38812;50.942;3.644;2022-10-17T10:37:48;101647.63;;;18.23;100.00
52949;BME280;38812;50.942;3.644;2022-10-17T10:40:18;101696.06;;;18.31;100.00
52949;BME280;38812;50.942;3.644;2022-10-17T10:42:52;101690.16;;;18.23;100.00
52949;BME280;38812;50.942;3.644;2022-10-17T10:45:21;101707.19;;;18.19;100.00
52949;BME280;38812;50.942;3.644;2022-10-17T10:48:02;101708.44;;;18.32;100.00
52949;BME280;38812;50.942;3.644;2022-10-17T10:50:37;101714.53;;;18.57;100.00
52949;BME280;38812;50.942;3.644;2022-10-17T10:53:42;101734.53;;;18.67;100.00
52949;BME280;38812;50.942;3.644;2022-10-17T10:56:25;101736.44;;;18.86;100.00
52949;BME280;38812;50.942;3.644;2022-10-17T11:06:44;101764.72;;;18.88;100.00
52949;BME280;38812;50.942;3.644;2022-10-17T11:11:59;101756.09;;;18.61;100.00
52949;BME280;38812;50.942;3.644;2022-10-17T11:14:42;101778.09;;;18.65;100.00
52949;BME280;38812;50.942;3.644;2022-10-17T11:19:43;101776.25;;;18.43;100.00
52949;BME280;38812;50.942;3.644;2022-10-17T11:22:20;101776.91;;;18.27;100.00
52949;BME280;38812;50.942;3.644;2022-10-17T11:24:53;101761.53;;;18.35;100.00
52949;BME280;38812;50.942;3.644;2022-10-17T11:27:22;101758.06;;;18.33;100.00
52949;BME280;38812;50.942;3.644;2022-10-17T11:29:48;101792.00;;;18.26;100.00
52949;BME280;38812;50.942;3.644;2022-10-17T11:35:15;101789.97;;;18.09;100.00
52949;BME280;38812;50.942;3.644;2022-10-17T11:37:49;101799.84;;;18.06;100.00
52949;BME280;38812;50.942;3.644;2022-10-17T11:40:21;101817.38;;;18.11;100.00
52949;BME280;38812;50.942;3.644;2022-10-17T11:42:56;101819.94;;;18.14;100.00
52949;BME280;38812;50.942;3.644;2022-10-17T11:45:25;101822.59;;;18.14;100.00
52949;BME280;38812;50.942;3.644;2022-10-17T11:47:56;101784.25;;;17.97;100.00
52949;BME280;38812;50.942;3.644;2022-10-17T11:50:25;101821.72;;;18.14;100.00
52949;BME280;38812;50.942;3.644;2022-10-17T11:53:16;101827.19;;;18.09;100.00
52949;BME280;38812;50.942;3.644;2022-10-17T11:55:41;101836.97;;;18.09;100.00
52949;BME280;38812;50.942;3.644;2022-10-17T12:00:50;101844.53;;;17.96;100.00
52949;BME280;38812;50.942;3.644;2022-10-17T12:03:45;101836.38;;;18.01;100.00
52949;BME280;38812;50.942;3.644;2022-10-17T12:09:26;101857.16;;;18.14;100.00
52949;BME280;38812;50.942;3.644;2022-10-17T12:11:59;101830.56;;;18.14;100.00
52949;BME280;38812;50.942;3.644;2022-10-17T12:14:44;101848.72;;;18.27;100.00
52949;BME280;38812;50.942;3.644;2022-10-17T12:25:23;101881.41;;;18.30;100.00
52949;BME280;38812;50.942;3.644;2022-10-17T12:33:17;101883.13;;;18.31;100.00
52949;BME280;38812;50.942;3.644;2022-10-17T12:35:47;101896.50;;;18.30;100.00
52949;BME280;38812;50.942;3.644;2022-10-17T12:45:59;101929.19;;;18.33;100.00
52949;BME280;38812;50.942;3.644;2022-10-17T12:51:06;101941.16;;;18.45;100.00
52949;BME280;38812;50.942;3.644;2022-10-17T12:56:00;101954.34;;;18.48;100.00
52949;BME280;38812;50.942;3.644;2022-10-17T12:58:27;101960.66;;;18.45;100.00
52949;BME280;38812;50.942;3.644;2022-10-17T13:00:57;101965.00;;;18.48;100.00
52949;BME280;38812;50.942;3.644;2022-10-17T13:03:26;101990.34;;;18.60;100.00
52949;BME280;38812;50.942;3.644;2022-10-17T13:05:55;101987.81;;;18.55;100.00
52949;BME280;38812;50.942;3.644;2022-10-17T13:08:24;102003.59;;;18.61;100.00
52949;BME280;38812;50.942;3.644;2022-10-17T13:10:52;102035.91;;;18.49;100.00
52949;BME280;38812;50.942;3.644;2022-10-17T13:15:58;102017.34;;;18.47;100.00
52949;BME280;38812;50.942;3.644;2022-10-17T13:18:27;102002.59;;;18.39;100.00
52949;BME280;38812;50.942;3.644;2022-10-17T13:21:18;102013.81;;;18.47;100.00
52949;BME280;38812;50.942;3.644;2022-10-17T13:23:44;102027.72;;;18.55;100.00
52949;BME280;38812;50.942;3.644;2022-10-17T13:26:29;102024.81;;;18.63;100.00
52949;BME280;38812;50.942;3.644;2022-10-17T13:29:12;102009.91;;;18.57;100.00
52949;BME280;38812;50.942;3.644;2022-10-17T13:31:40;102027.81;;;18.78;100.00
52949;BME280;38812;50.942;3.644;2022-10-17T13:34:18;102024.75;;;18.64;100.00
52949;BME280;38812;50.942;3.644;2022-10-17T13:36:47;102032.31;;;18.76;100.00
52949;BME280;38812;50.942;3.644;2022-10-17T13:39:16;102019.63;;;18.58;100.00
52949;BME280;38812;50.942;3.644;2022-10-17T13:41:44;102037.25;;;18.62;100.00
52949;BME280;38812;50.942;3.644;2022-10-17T13:44:17;102022.13;;;18.63;100.00
52949;BME280;38812;50.942;3.644;2022-10-17T13:46:44;102031.88;;;18.64;100.00
52949;BME280;38812;50.942;3.644;2022-10-17T13:51:46;102026.44;;;18.67;100.00
52949;BME280;38812;50.942;3.644;2022-10-17T13:56:57;102038.31;;;18.57;100.00
52949;BME280;38812;50.942;3.644;2022-10-17T13:59:28;102040.41;;;18.47;100.00
52949;BME280;38812;50.942;3.644;2022-10-17T14:01:55;102050.84;;;18.53;100.00
52949;BME280;38812;50.942;3.644;2022-10-17T14:04:21;102041.34;;;18.46;100.00
52949;BME280;38812;50.942;3.644;2022-10-17T14:06:46;102041.56;;;18.40;100.00
52949;BME280;38812;50.942;3.644;2022-10-17T14:09:27;102036.06;;;18.44;100.00
52949;BME280;38812;50.942;3.644;2022-10-17T14:12:09;102036.78;;;18.49;100.00
52949;BME280;38812;50.942;3.644;2022-10-17T14:14:37;102030.53;;;18.50;100.00
52949;BME280;38812;50.942;3.644;2022-10-17T14:17:12;102028.69;;;18.53;100.00
52949;BME280;38812;50.942;3.644;2022-10-17T14:19:38;102044.31;;;18.63;100.00
52949;BME280;38812;50.942;3.644;2022-10-17T14:22:33;102032.34;;;18.50;100.00
52949;BME280;38812;50.942;3.644;2022-10-17T14:24:58;102029.72;;;18.48;100.00
52949;BME280;38812;50.942;3.644;2022-10-17T14:27:34;102050.53;;;18.62;100.00
52949;BME280;38812;50.942;3.644;2022-10-17T14:30:03;102057.75;;;18.60;100.00
52949;BME280;38812;50.942;3.644;2022-10-17T14:32:33;102061.34;;;18.58;100.00
52949;BME280;38812;50.942;3.644;2022-10-17T14:35:01;102064.00;;;18.58;100.00